createdAt,value
2023-02-27T00:01:06.162Z,101170.06
2023-02-27T00:03:36.833Z,101191.81
2023-02-27T00:06:06.993Z,101208.28
2023-02-27T00:08:35.293Z,101190.88
2023-02-27T00:11:03.358Z,101180.31
2023-02-27T00:13:32.173Z,101214.94
2023-02-27T00:16:02.368Z,101208.66
2023-02-27T00:18:32.700Z,101214.00
2023-02-27T00:21:01.744Z,101216.69
2023-02-27T00:23:32.993Z,101201.66
2023-02-27T00:26:02.718Z,101206.00
2023-02-27T00:28:32.145Z,101198.66
2023-02-27T00:33:57.942Z,101203.09
2023-02-27T00:36:31.137Z,101166.56
2023-02-27T00:39:01.570Z,101166.31
2023-02-27T00:41:29.879Z,101224.88
2023-02-27T00:43:58.466Z,101220.78
2023-02-27T00:46:26.521Z,101211.53
2023-02-27T00:48:56.662Z,101187.13
2023-02-27T00:51:28.204Z,101221.38
2023-02-27T00:53:56.808Z,101217.91
2023-02-27T00:56:27.758Z,101213.88
2023-02-27T00:58:56.098Z,101224.78
2023-02-27T01:01:26.425Z,101222.97
2023-02-27T01:03:55.211Z,101226.47
2023-02-27T01:06:27.357Z,101153.13
2023-02-27T01:09:01.896Z,101221.13
2023-02-27T01:11:33.861Z,101220.56
2023-02-27T01:14:02.114Z,101209.03
2023-02-27T01:16:32.543Z,101213.34
2023-02-27T01:19:01.356Z,101212.38
2023-02-27T01:21:30.675Z,101217.91
2023-02-27T01:23:59.268Z,101225.63
2023-02-27T01:26:29.118Z,101222.44
2023-02-27T01:28:59.015Z,101214.50
2023-02-27T01:31:38.202Z,101195.84
2023-02-27T01:34:07.304Z,101201.41
2023-02-27T01:36:38.930Z,101225.75
2023-02-27T01:39:06.904Z,101199.47
2023-02-27T01:41:37.743Z,101224.66
2023-02-27T01:44:12.925Z,101198.00
2023-02-27T01:46:45.194Z,101200.78
2023-02-27T01:49:27.578Z,101221.88
2023-02-27T01:52:04.063Z,101221.47
2023-02-27T01:54:44.915Z,101225.63
2023-02-27T01:57:13.320Z,101217.09
2023-02-27T01:59:44.604Z,101225.16
2023-02-27T02:02:19.210Z,101216.44
2023-02-27T02:04:48.465Z,101203.84
2023-02-27T02:07:22.490Z,101217.63
2023-02-27T02:09:54.406Z,101206.63
2023-02-27T02:12:31.872Z,101211.00
2023-02-27T02:15:12.273Z,101213.44
2023-02-27T02:17:54.078Z,101213.78
2023-02-27T02:21:03.017Z,101207.50
2023-02-27T02:23:58.078Z,101201.66
2023-02-27T02:26:39.305Z,101197.69
2023-02-27T02:29:44.459Z,101207.59
2023-02-27T02:36:07.202Z,101178.59
2023-02-27T02:38:54.590Z,101169.66
2023-02-27T02:41:34.569Z,101216.22
2023-02-27T02:44:08.958Z,101207.78
2023-02-27T02:46:48.254Z,101219.88
2023-02-27T02:49:27.720Z,101213.22
2023-02-27T02:52:04.397Z,101219.88
2023-02-27T02:54:41.274Z,101218.16
2023-02-27T02:57:17.132Z,101200.19
2023-02-27T02:59:52.295Z,101222.06
2023-02-27T03:02:24.596Z,101194.84
2023-02-27T03:04:57.479Z,101227.97
2023-02-27T03:07:36.395Z,101199.91
2023-02-27T03:10:13.642Z,101197.13
2023-02-27T03:12:48.132Z,101225.69
2023-02-27T03:15:21.463Z,101207.66
2023-02-27T03:17:55.578Z,101222.31
2023-02-27T03:20:39.156Z,101188.78
2023-02-27T03:23:16.229Z,101215.31
2023-02-27T03:25:54.557Z,101216.88
2023-02-27T03:31:32.780Z,101206.59
2023-02-27T03:34:10.070Z,101226.94
2023-02-27T03:36:48.698Z,101215.44
2023-02-27T03:39:40.190Z,101228.13
2023-02-27T03:42:24.907Z,101230.81
2023-02-27T03:45:02.658Z,101235.28
2023-02-27T03:47:36.269Z,101202.00
2023-02-27T03:50:05.763Z,101173.06
2023-02-27T03:52:37.536Z,101221.50
2023-02-27T03:55:13.069Z,101237.09
2023-02-27T03:57:44.665Z,101237.09
2023-02-27T04:00:19.521Z,101223.53
2023-02-27T04:02:50.729Z,101253.59
2023-02-27T04:05:21.821Z,101247.53
2023-02-27T04:08:03.249Z,101243.53
2023-02-27T04:10:57.904Z,101249.81
2023-02-27T04:16:53.390Z,101263.13
2023-02-27T04:19:49.707Z,101248.09
2023-02-27T04:22:32.753Z,101270.25
2023-02-27T04:25:25.319Z,101265.31
2023-02-27T04:28:16.054Z,101259.59
2023-02-27T04:30:56.934Z,101221.34
2023-02-27T04:33:39.751Z,101252.94
2023-02-27T04:36:14.368Z,101267.22
2023-02-27T04:38:49.821Z,101268.44
2023-02-27T04:41:24.937Z,101232.22
2023-02-27T04:43:55.031Z,101271.44
2023-02-27T04:46:30.444Z,101271.09
2023-02-27T04:49:02.051Z,101277.84
2023-02-27T04:51:36.971Z,101273.88
2023-02-27T04:54:12.348Z,101252.06
2023-02-27T04:56:45.895Z,101280.88
2023-02-27T04:59:19.440Z,101283.19
2023-02-27T05:01:59.276Z,101286.44
2023-02-27T05:04:31.335Z,101282.31
2023-02-27T05:07:03.535Z,101232.13
2023-02-27T05:09:44.776Z,101232.66
2023-02-27T05:12:18.437Z,101285.44
2023-02-27T05:14:52.400Z,101290.38
2023-02-27T05:17:29.124Z,101286.03
2023-02-27T05:19:59.586Z,101292.88
2023-02-27T05:22:40.941Z,101296.63
2023-02-27T05:25:16.922Z,101270.72
2023-02-27T05:27:53.215Z,101289.53
2023-02-27T05:30:27.597Z,101310.09
2023-02-27T05:33:00.812Z,101316.38
2023-02-27T05:35:36.079Z,101311.28
2023-02-27T05:38:16.528Z,101302.03
2023-02-27T05:40:50.456Z,101313.50
2023-02-27T05:43:22.446Z,101320.06
2023-02-27T05:45:57.057Z,101269.03
2023-02-27T05:48:32.123Z,101291.38
2023-02-27T05:51:01.544Z,101326.19
2023-02-27T05:53:35.478Z,101338.75
2023-02-27T05:56:08.078Z,101297.31
2023-02-27T05:58:41.425Z,101328.38
2023-02-27T06:01:12.037Z,101339.50
2023-02-27T06:03:46.786Z,101316.22
2023-02-27T06:06:18.459Z,101311.66
2023-02-27T06:08:47.538Z,101342.84
2023-02-27T06:11:18.185Z,101321.41
2023-02-27T06:13:46.696Z,101338.75
2023-02-27T06:16:17.302Z,101346.22
2023-02-27T06:18:48.290Z,101350.78
2023-02-27T06:21:16.640Z,101355.91
2023-02-27T06:23:45.463Z,101343.13
2023-02-27T06:26:14.442Z,101357.28
2023-02-27T06:28:44.400Z,101329.19
2023-02-27T06:31:13.415Z,101361.22
2023-02-27T06:33:43.866Z,101358.56
2023-02-27T06:36:24.144Z,101336.59
2023-02-27T06:38:53.944Z,101357.22
2023-02-27T06:41:24.033Z,101359.41
2023-02-27T06:43:52.206Z,101347.38
2023-02-27T06:46:21.338Z,101371.78
2023-02-27T06:48:49.951Z,101363.88
2023-02-27T06:51:23.349Z,101364.56
2023-02-27T06:53:54.546Z,101367.88
2023-02-27T06:56:24.125Z,101366.91
2023-02-27T06:58:52.605Z,101372.06
2023-02-27T07:01:20.924Z,101369.44
2023-02-27T07:03:49.940Z,101341.34
2023-02-27T07:07:32.372Z,101356.75
2023-02-27T07:09:15.033Z,101360.59
2023-02-27T07:11:43.476Z,101379.41
2023-02-27T07:14:13.053Z,101367.53
2023-02-27T07:16:43.217Z,101380.25
2023-02-27T07:19:11.647Z,101374.69
2023-02-27T07:21:42.392Z,101383.41
2023-02-27T07:24:10.468Z,101329.28
2023-02-27T07:26:39.091Z,101368.41
2023-02-27T07:29:09.084Z,101353.13
2023-02-27T07:31:39.694Z,101375.56
2023-02-27T07:34:09.657Z,101365.25
2023-02-27T07:36:41.313Z,101377.38
2023-02-27T07:39:12.569Z,101379.19
2023-02-27T07:41:41.503Z,101380.63
2023-02-27T07:44:32.790Z,101357.97
2023-02-27T07:47:06.843Z,101367.28
2023-02-27T07:49:40.558Z,101388.25
2023-02-27T07:52:11.228Z,101396.38
2023-02-27T07:54:41.045Z,101404.13
2023-02-27T07:57:08.973Z,101400.47
2023-02-27T07:59:37.452Z,101389.81
2023-02-27T08:02:08.065Z,101404.13
2023-02-27T08:04:37.546Z,101403.84
2023-02-27T08:07:06.345Z,101389.03
2023-02-27T08:09:40.364Z,101389.41
2023-02-27T08:12:10.337Z,101396.78
2023-02-27T08:14:39.848Z,101401.28
2023-02-27T08:17:09.988Z,101405.72
2023-02-27T08:19:41.153Z,101413.09
2023-02-27T08:22:09.390Z,101411.88
2023-02-27T08:24:40.569Z,101421.09
2023-02-27T08:27:09.160Z,101409.06
2023-02-27T08:29:45.577Z,101422.44
2023-02-27T08:32:15.905Z,101410.97
2023-02-27T08:34:48.201Z,101414.69
2023-02-27T08:37:20.672Z,101376.53
2023-02-27T08:39:50.656Z,101414.38
2023-02-27T08:42:19.763Z,101404.94
2023-02-27T08:44:50.743Z,101387.91
2023-02-27T08:47:22.607Z,101409.19
2023-02-27T08:49:51.401Z,101387.69
2023-02-27T08:52:20.660Z,101403.91
2023-02-27T08:54:53.237Z,101407.56
2023-02-27T08:57:24.114Z,101407.25
2023-02-27T08:59:52.371Z,101365.91
2023-02-27T09:02:23.573Z,101399.63
2023-02-27T09:04:55.308Z,101399.13
2023-02-27T09:07:23.296Z,101381.09
2023-02-27T09:09:57.798Z,101387.09
2023-02-27T09:12:26.038Z,101397.56
2023-02-27T09:14:56.048Z,101407.75
2023-02-27T09:17:25.864Z,101383.25
2023-02-27T09:19:57.570Z,101396.38
2023-02-27T09:22:26.420Z,101413.47
2023-02-27T09:24:57.584Z,101417.56
2023-02-27T09:27:26.789Z,101416.56
2023-02-27T09:29:57.041Z,101392.31
2023-02-27T09:32:27.627Z,101415.56
2023-02-27T09:34:58.072Z,101389.63
2023-02-27T09:37:28.499Z,101417.84
2023-02-27T09:39:59.177Z,101410.47
2023-02-27T09:42:36.732Z,101419.31
2023-02-27T09:45:08.620Z,101395.66
2023-02-27T09:47:41.648Z,101425.19
2023-02-27T09:50:35.334Z,101433.06
2023-02-27T09:53:03.957Z,101399.59
2023-02-27T09:55:40.263Z,101442.88
2023-02-27T09:58:26.451Z,101446.84
2023-02-27T10:01:08.261Z,101441.19
2023-02-27T10:03:55.447Z,101446.75
2023-02-27T10:06:28.353Z,101437.03
2023-02-27T10:09:07.348Z,101418.13
2023-02-27T10:11:52.022Z,101437.47
2023-02-27T10:14:33.762Z,101442.38
2023-02-27T10:17:06.440Z,101403.56
2023-02-27T10:19:38.872Z,101427.72
2023-02-27T10:22:14.880Z,101424.63
2023-02-27T10:24:53.009Z,101430.34
2023-02-27T10:27:24.995Z,101416.25
2023-02-27T10:29:58.118Z,101396.56
2023-02-27T10:32:33.784Z,101409.84
2023-02-27T10:35:11.308Z,101417.69
2023-02-27T10:37:50.595Z,101414.84
2023-02-27T10:40:20.777Z,101413.25
2023-02-27T10:42:52.720Z,101399.50
2023-02-27T10:45:21.216Z,101410.53
2023-02-27T10:47:52.243Z,101414.41
2023-02-27T10:50:30.763Z,101402.50
2023-02-27T10:53:02.681Z,101414.09
2023-02-27T10:55:33.203Z,101418.72
2023-02-27T10:58:05.539Z,101399.13
2023-02-27T11:00:50.089Z,101404.94
2023-02-27T11:03:22.544Z,101375.47
2023-02-27T11:06:00.903Z,101392.97
2023-02-27T11:08:33.855Z,101378.59
2023-02-27T11:11:04.893Z,101389.78
2023-02-27T11:13:45.859Z,101385.72
2023-02-27T11:16:19.792Z,101344.88
2023-02-27T11:18:50.413Z,101388.13
2023-02-27T11:21:32.498Z,101378.44
2023-02-27T11:24:06.511Z,101364.16
2023-02-27T11:26:37.481Z,101351.38
2023-02-27T11:29:09.714Z,101377.06
2023-02-27T11:31:38.937Z,101317.34
2023-02-27T11:34:10.144Z,101323.19
2023-02-27T11:36:50.969Z,101350.31
2023-02-27T11:39:30.884Z,101350.03
2023-02-27T11:42:07.020Z,101344.66
2023-02-27T11:44:57.441Z,101345.13
2023-02-27T11:47:31.612Z,101331.66
2023-02-27T11:50:36.560Z,101345.72
2023-02-27T11:53:20.122Z,101324.69
2023-02-27T11:55:50.468Z,101331.44
2023-02-27T11:58:23.017Z,101316.94
2023-02-27T12:00:59.266Z,101316.06
2023-02-27T12:03:41.377Z,101318.34
2023-02-27T12:06:21.017Z,101316.72
2023-02-27T12:08:54.558Z,101282.84
2023-02-27T12:11:29.877Z,101309.91
2023-02-27T12:14:20.536Z,101284.66
2023-02-27T12:17:06.116Z,101308.09
2023-02-27T12:19:41.445Z,101313.91
2023-02-27T12:22:19.200Z,101295.03
2023-02-27T12:24:54.158Z,101299.34
2023-02-27T12:27:27.360Z,101298.84
2023-02-27T12:30:04.462Z,101289.41
2023-02-27T12:32:40.559Z,101298.72
2023-02-27T12:35:22.837Z,101291.28
2023-02-27T12:37:52.072Z,101286.34
2023-02-27T12:43:28.339Z,101264.75
2023-02-27T12:46:14.425Z,101286.88
2023-02-27T12:54:37.846Z,101284.88
2023-02-27T12:57:21.250Z,101281.34
2023-02-27T12:59:59.205Z,101276.91
2023-02-27T13:02:47.394Z,101266.25
2023-02-27T13:05:44.651Z,101289.66
2023-02-27T13:08:27.705Z,101251.91
2023-02-27T13:11:06.848Z,101281.34
2023-02-27T13:13:40.714Z,101287.56
2023-02-27T13:16:18.012Z,101274.88
2023-02-27T13:18:51.113Z,101273.59
2023-02-27T13:21:37.025Z,101281.31
2023-02-27T13:24:19.417Z,101257.34
2023-02-27T13:26:57.063Z,101262.13
2023-02-27T13:29:34.869Z,101263.16
2023-02-27T13:32:27.293Z,101269.16
2023-02-27T13:35:13.756Z,101278.59
2023-02-27T13:38:03.585Z,101267.97
2023-02-27T13:40:38.997Z,101263.97
2023-02-27T13:43:40.515Z,101267.47
2023-02-27T13:46:26.806Z,101266.78
2023-02-27T13:49:29.129Z,101259.03
2023-02-27T13:52:00.476Z,101265.94
2023-02-27T13:54:36.759Z,101267.81
2023-02-27T13:57:29.212Z,101266.69
2023-02-27T14:00:08.868Z,101245.97
2023-02-27T14:02:58.368Z,101263.69
2023-02-27T14:05:39.353Z,101261.81
2023-02-27T14:08:15.670Z,101237.38
2023-02-27T14:10:58.585Z,101262.47
2023-02-27T14:13:59.176Z,101271.25
2023-02-27T14:17:06.450Z,101279.47
2023-02-27T14:20:02.205Z,101283.28
2023-02-27T14:23:03.771Z,101279.56
2023-02-27T14:25:39.502Z,101272.19
2023-02-27T14:28:19.110Z,101247.59
2023-02-27T14:31:01.160Z,101277.31
2023-02-27T14:33:40.749Z,101238.91
2023-02-27T14:36:18.676Z,101293.34
2023-02-27T14:38:47.575Z,101271.78
2023-02-27T14:41:32.207Z,101271.53
2023-02-27T14:44:01.107Z,101270.66
2023-02-27T14:46:37.602Z,101276.25
2023-02-27T14:49:22.182Z,101287.25
2023-02-27T14:51:52.177Z,101282.00
2023-02-27T14:54:23.720Z,101270.13
2023-02-27T14:56:56.470Z,101283.59
2023-02-27T14:59:29.317Z,101275.34
2023-02-27T15:02:02.827Z,101285.56
2023-02-27T15:04:34.531Z,101287.09
2023-02-27T15:07:04.258Z,101282.69
2023-02-27T15:09:43.074Z,101282.50
2023-02-27T15:12:18.613Z,101277.44
2023-02-27T15:14:58.674Z,101276.41
2023-02-27T15:17:39.575Z,101283.88
2023-02-27T15:20:30.771Z,101281.69
2023-02-27T15:23:00.245Z,101279.00
2023-02-27T15:25:33.996Z,101274.25
2023-02-27T15:28:07.893Z,101272.06
2023-02-27T15:30:39.328Z,101280.88
2023-02-27T15:33:16.437Z,101276.47
2023-02-27T15:35:47.631Z,101277.09
2023-02-27T15:38:26.662Z,101285.19
2023-02-27T15:40:57.229Z,101279.78
2023-02-27T15:43:31.836Z,101282.97
2023-02-27T15:46:00.525Z,101244.44
2023-02-27T15:48:31.157Z,101263.22
2023-02-27T15:51:17.400Z,101282.47
2023-02-27T15:53:53.802Z,101283.19
2023-02-27T15:56:27.596Z,101267.94
2023-02-27T15:59:00.955Z,101290.63
2023-02-27T16:01:32.877Z,101273.34
2023-02-27T16:04:03.976Z,101301.50
2023-02-27T16:06:45.032Z,101262.16
2023-02-27T16:09:24.281Z,101307.16
2023-02-27T16:12:22.744Z,101314.75
2023-02-27T16:14:54.233Z,101316.75
2023-02-27T16:17:29.623Z,101321.44
2023-02-27T16:20:04.049Z,101319.94
2023-02-27T16:22:42.398Z,101311.84
2023-02-27T16:25:15.567Z,101332.44
2023-02-27T16:27:53.039Z,101334.88
2023-02-27T16:30:23.128Z,101342.66
2023-02-27T16:33:01.116Z,101342.94
2023-02-27T16:35:39.368Z,101326.34
2023-02-27T16:38:15.048Z,101351.72
2023-02-27T16:40:46.020Z,101342.81
2023-02-27T16:43:19.609Z,101366.94
2023-02-27T16:45:52.811Z,101358.56
2023-02-27T16:48:21.497Z,101347.81
2023-02-27T16:50:53.730Z,101312.75
2023-02-27T16:53:26.156Z,101370.47
2023-02-27T16:56:09.672Z,101377.78
2023-02-27T16:58:41.313Z,101371.94
2023-02-27T17:01:09.586Z,101366.50
2023-02-27T17:03:41.784Z,101383.84
2023-02-27T17:06:14.886Z,101383.69
2023-02-27T17:08:45.563Z,101384.69
2023-02-27T17:11:18.372Z,101377.69
2023-02-27T17:13:46.569Z,101380.84
2023-02-27T17:16:17.336Z,101362.88
2023-02-27T17:18:46.091Z,101397.13
2023-02-27T17:21:22.018Z,101355.25
2023-02-27T17:23:53.488Z,101386.81
2023-02-27T17:26:23.766Z,101393.41
2023-02-27T17:28:58.209Z,101395.78
2023-02-27T17:31:29.204Z,101402.06
2023-02-27T17:34:00.139Z,101408.50
2023-02-27T17:36:29.940Z,101366.66
2023-02-27T17:39:04.055Z,101402.22
2023-02-27T17:41:36.470Z,101405.28
2023-02-27T17:44:06.937Z,101409.72
2023-02-27T17:46:42.834Z,101400.19
2023-02-27T17:49:13.546Z,101396.22
2023-02-27T17:51:42.252Z,101413.44
2023-02-27T17:54:12.470Z,101405.13
2023-02-27T17:56:44.413Z,101421.50
2023-02-27T17:59:13.993Z,101386.03
2023-02-27T18:01:44.301Z,101421.56
2023-02-27T18:04:12.826Z,101419.44
2023-02-27T18:06:42.160Z,101426.25
2023-02-27T18:09:13.223Z,101441.78
2023-02-27T18:11:42.708Z,101420.63
2023-02-27T18:14:10.969Z,101436.59
2023-02-27T18:16:42.178Z,101405.81
2023-02-27T18:19:11.299Z,101443.34
2023-02-27T18:21:39.775Z,101431.50
2023-02-27T18:27:53.476Z,101446.19
2023-02-27T18:30:22.178Z,101400.47
2023-02-27T18:33:00.935Z,101450.69
2023-02-27T18:35:34.164Z,101445.75
2023-02-27T18:38:04.779Z,101396.41
2023-02-27T18:40:33.382Z,101454.53
2023-02-27T18:43:09.236Z,101435.47
2023-02-27T18:45:40.629Z,101417.69
2023-02-27T18:48:13.022Z,101442.97
2023-02-27T18:50:42.129Z,101442.25
2023-02-27T18:53:11.385Z,101417.84
2023-02-27T18:55:47.230Z,101407.00
2023-02-27T18:58:18.062Z,101442.53
2023-02-27T19:00:50.065Z,101437.31
2023-02-27T19:03:19.564Z,101412.22
2023-02-27T19:05:48.490Z,101436.03
2023-02-27T19:08:20.229Z,101432.34
2023-02-27T19:10:55.360Z,101441.97
2023-02-27T19:13:28.156Z,101443.22
2023-02-27T19:15:58.760Z,101445.19
2023-02-27T19:18:28.507Z,101450.94
2023-02-27T19:21:06.747Z,101453.22
2023-02-27T19:23:36.341Z,101457.97
2023-02-27T19:26:04.554Z,101435.81
2023-02-27T19:28:36.108Z,101459.50
2023-02-27T19:31:11.732Z,101446.09
2023-02-27T19:33:41.150Z,101468.28
2023-02-27T19:36:20.124Z,101459.97
2023-02-27T19:38:48.409Z,101441.69
2023-02-27T19:41:17.797Z,101461.28
2023-02-27T19:43:49.954Z,101461.97
2023-02-27T19:46:20.744Z,101458.44
2023-02-27T19:48:49.479Z,101459.28
2023-02-27T19:51:20.440Z,101474.66
2023-02-27T19:54:13.400Z,101473.81
2023-02-27T19:56:43.286Z,101469.44
2023-02-27T19:59:15.150Z,101470.72
2023-02-27T20:01:43.407Z,101469.31
2023-02-27T20:04:14.822Z,101479.19
2023-02-27T20:06:44.833Z,101459.44
2023-02-27T20:09:16.672Z,101478.47
2023-02-27T20:11:46.460Z,101484.81
2023-02-27T20:14:20.393Z,101486.97
2023-02-27T20:16:57.198Z,101481.06
2023-02-27T20:19:26.821Z,101486.09
2023-02-27T20:21:57.268Z,101483.59
2023-02-27T20:24:27.313Z,101485.00
2023-02-27T20:26:59.145Z,101484.16
2023-02-27T20:29:29.168Z,101484.59
2023-02-27T20:32:01.206Z,101484.16
2023-02-27T20:34:31.036Z,101483.59
2023-02-27T20:37:00.493Z,101456.78
2023-02-27T20:39:31.474Z,101479.22
2023-02-27T20:42:03.683Z,101479.66
2023-02-27T20:44:33.082Z,101471.47
2023-02-27T20:47:04.984Z,101473.03
2023-02-27T20:49:35.608Z,101474.56
2023-02-27T20:52:04.582Z,101474.41
2023-02-27T20:57:19.602Z,101443.34
2023-02-27T20:59:51.103Z,101459.31
2023-02-27T21:02:21.930Z,101471.28
2023-02-27T21:04:53.984Z,101473.56
2023-02-27T21:07:22.931Z,101474.41
2023-02-27T21:09:55.583Z,101454.31
2023-02-27T21:12:23.625Z,101477.59
2023-02-27T21:14:54.213Z,101460.56
2023-02-27T21:17:23.388Z,101467.59
2023-02-27T21:19:52.100Z,101476.88
2023-02-27T21:22:23.850Z,101471.69
2023-02-27T21:24:53.714Z,101468.56
2023-02-27T21:27:26.339Z,101473.06
2023-02-27T21:29:56.604Z,101472.66
2023-02-27T21:32:25.023Z,101463.91
2023-02-27T21:34:53.827Z,101479.00
2023-02-27T21:37:22.848Z,101470.06
2023-02-27T21:39:55.085Z,101478.56
2023-02-27T21:42:25.298Z,101476.31
2023-02-27T21:44:58.392Z,101478.06
2023-02-27T21:47:29.682Z,101483.25
2023-02-27T21:49:59.595Z,101466.03
2023-02-27T21:52:28.410Z,101462.31
2023-02-27T21:54:59.594Z,101480.50
2023-02-27T21:57:31.732Z,101471.88
2023-02-27T22:00:02.172Z,101472.53
2023-02-27T22:02:30.609Z,101458.28
2023-02-27T22:05:00.846Z,101468.53
2023-02-27T22:07:31.060Z,101474.34
2023-02-27T22:10:00.011Z,101471.47
2023-02-27T22:12:28.065Z,101471.47
2023-02-27T22:14:56.650Z,101479.94
2023-02-27T22:17:26.469Z,101444.91
2023-02-27T22:19:58.753Z,101472.09
2023-02-27T22:22:28.066Z,101473.50
2023-02-27T22:24:57.916Z,101460.63
2023-02-27T22:27:25.899Z,101474.28
2023-02-27T22:29:54.618Z,101460.44
2023-02-27T22:32:29.303Z,101463.66
2023-02-27T22:34:59.710Z,101431.72
2023-02-27T22:37:29.197Z,101468.47
2023-02-27T22:39:57.839Z,101443.44
2023-02-27T22:42:26.921Z,101473.97
2023-02-27T22:45:04.463Z,101389.66
2023-02-27T22:47:36.971Z,101477.09
2023-02-27T22:50:06.812Z,101472.16
2023-02-27T22:52:41.182Z,101476.41
2023-02-27T22:55:10.787Z,101462.47
2023-02-27T22:57:38.623Z,101428.69
2023-02-27T23:00:12.732Z,101457.50
2023-02-27T23:02:44.668Z,101459.94
2023-02-27T23:05:12.826Z,101404.19
2023-02-27T23:07:44.653Z,101474.22
2023-02-27T23:10:15.469Z,101480.97
2023-02-27T23:12:43.802Z,101473.00
2023-02-27T23:15:12.615Z,101477.50
2023-02-27T23:17:56.637Z,101468.94
2023-02-27T23:20:29.707Z,101478.34
2023-02-27T23:22:59.374Z,101465.91
2023-02-27T23:25:27.933Z,101419.88
2023-02-27T23:27:56.642Z,101439.38
2023-02-27T23:30:28.156Z,101470.88
2023-02-27T23:33:00.882Z,101470.28
2023-02-27T23:35:33.099Z,101469.31
2023-02-27T23:38:04.330Z,101461.50
2023-02-27T23:40:34.981Z,101473.38
2023-02-27T23:43:04.456Z,101481.94
2023-02-27T23:45:35.239Z,101475.53
2023-02-27T23:48:08.814Z,101486.69
2023-02-27T23:50:39.136Z,101473.97
2023-02-27T23:53:10.206Z,101463.13
2023-02-27T23:55:40.502Z,101463.88
2023-02-27T23:58:11.896Z,101469.47
